sensor_id;sensor_type;location;lat;lon;timestamp;pressure;altitude;pressure_sealevel;temperature;humidity
10482;BME280;5288;42.334;23.876;2022-12-07T00:01:06;56547.47;;;-140.56;75.52
10482;BME280;5288;42.334;23.876;2022-12-07T00:03:34;56547.47;;;-140.56;75.52
10482;BME280;5288;42.334;23.876;2022-12-07T00:06:02;56553.41;;;-140.56;75.27
10482;BME280;5288;42.334;23.876;2022-12-07T00:08:30;56575.13;;;-140.56;75.49
10482;BME280;5288;42.334;23.876;2022-12-07T00:11:01;56553.41;;;-140.56;75.64
10482;BME280;5288;42.334;23.876;2022-12-07T00:13:28;56551.41;;;-140.56;75.74
10482;BME280;5288;42.334;23.876;2022-12-07T00:15:56;56551.41;;;-140.56;75.41
10482;BME280;5288;42.334;23.876;2022-12-07T00:18:26;56555.38;;;-140.56;75.62
10482;BME280;5288;42.334;23.876;2022-12-07T00:20:59;56543.50;;;-140.56;76.05
10482;BME280;5288;42.334;23.876;2022-12-07T00:23:26;56545.50;;;-140.56;76.16
10482;BME280;5288;42.334;23.876;2022-12-07T00:25:53;56592.94;;;-140.56;75.85
10482;BME280;5288;42.334;23.876;2022-12-07T00:28:20;56551.41;;;-140.56;75.84
10482;BME280;5288;42.334;23.876;2022-12-07T00:30:47;56561.31;;;-140.56;75.55
10482;BME280;5288;42.334;23.876;2022-12-07T00:33:14;56575.13;;;-140.56;75.82
10482;BME280;5288;42.334;23.876;2022-12-07T00:35:41;56551.41;;;-140.56;75.60
10482;BME280;5288;42.334;23.876;2022-12-07T00:38:10;56539.56;;;-140.56;75.50
10482;BME280;5288;42.334;23.876;2022-12-07T00:40:37;56559.31;;;-140.56;75.45
10482;BME280;5288;42.334;23.876;2022-12-07T00:43:04;56555.38;;;-140.56;76.09
10482;BME280;5288;42.334;23.876;2022-12-07T00:45:31;56559.31;;;-140.56;75.87
10482;BME280;5288;42.334;23.876;2022-12-07T00:47:58;56551.41;;;-140.56;75.80
10482;BME280;5288;42.334;23.876;2022-12-07T00:50:25;56535.59;;;-140.56;75.88
10482;BME280;5288;42.334;23.876;2022-12-07T00:52:52;56579.09;;;-140.56;75.90
10482;BME280;5288;42.334;23.876;2022-12-07T00:55:20;56535.59;;;-140.56;75.76
10482;BME280;5288;42.334;23.876;2022-12-07T00:57:47;56531.66;;;-140.56;75.56
10482;BME280;5288;42.334;23.876;2022-12-07T01:00:15;56555.38;;;-140.56;75.63
10482;BME280;5288;42.334;23.876;2022-12-07T01:02:42;56547.47;;;-140.56;75.37
10482;BME280;5288;42.334;23.876;2022-12-07T01:05:09;56596.88;;;-140.56;75.76
10482;BME280;5288;42.334;23.876;2022-12-07T01:07:36;56549.44;;;-140.56;75.74
10482;BME280;5288;42.334;23.876;2022-12-07T01:10:03;56565.25;;;-140.56;76.53
10482;BME280;5288;42.334;23.876;2022-12-07T01:12:32;56547.47;;;-140.56;76.76
10482;BME280;5288;42.334;23.876;2022-12-07T01:14:59;56571.19;;;-140.56;76.78
10482;BME280;5288;42.334;23.876;2022-12-07T01:17:26;56563.28;;;-140.56;77.23
10482;BME280;5288;42.334;23.876;2022-12-07T01:19:53;56559.31;;;-140.56;76.79
10482;BME280;5288;42.334;23.876;2022-12-07T01:22:20;56557.34;;;-140.56;76.46
10482;BME280;5288;42.334;23.876;2022-12-07T01:24:47;56529.69;;;-140.56;76.61
10482;BME280;5288;42.334;23.876;2022-12-07T01:27:14;56537.59;;;-140.56;76.51
10482;BME280;5288;42.334;23.876;2022-12-07T01:29:42;56581.06;;;-140.56;76.56
10482;BME280;5288;42.334;23.876;2022-12-07T01:32:10;56555.38;;;-140.56;76.90
10482;BME280;5288;42.334;23.876;2022-12-07T01:34:37;56577.13;;;-140.56;77.25
10482;BME280;5288;42.334;23.876;2022-12-07T01:37:04;56555.38;;;-140.56;77.13
10482;BME280;5288;42.334;23.876;2022-12-07T01:39:31;56553.41;;;-140.56;76.96
10482;BME280;5288;42.334;23.876;2022-12-07T01:41:58;56505.97;;;-140.56;76.68
10482;BME280;5288;42.334;23.876;2022-12-07T01:44:26;56553.41;;;-140.56;76.69
10482;BME280;5288;42.334;23.876;2022-12-07T01:46:58;56567.22;;;-140.56;76.54
10482;BME280;5288;42.334;23.876;2022-12-07T01:49:30;56592.94;;;-140.56;76.58
10482;BME280;5288;42.334;23.876;2022-12-07T01:52:03;56581.06;;;-140.56;76.82
10482;BME280;5288;42.334;23.876;2022-12-07T01:54:35;56543.50;;;-140.56;76.84
10482;BME280;5288;42.334;23.876;2022-12-07T01:57:03;56604.78;;;-140.56;76.54
10482;BME280;5288;42.334;23.876;2022-12-07T01:59:33;56575.13;;;-140.56;76.91
10482;BME280;5288;42.334;23.876;2022-12-07T02:02:04;56585.03;;;-140.56;77.28
10482;BME280;5288;42.334;23.876;2022-12-07T02:04:35;56547.47;;;-140.56;77.35
10482;BME280;5288;42.334;23.876;2022-12-07T02:07:03;56571.19;;;-140.56;77.36
10482;BME280;5288;42.334;23.876;2022-12-07T02:09:31;56583.03;;;-140.56;77.30
10482;BME280;5288;42.334;23.876;2022-12-07T02:11:58;56561.31;;;-140.56;77.35
10482;BME280;5288;42.334;23.876;2022-12-07T02:14:25;56559.31;;;-140.56;77.72
10482;BME280;5288;42.334;23.876;2022-12-07T02:17:03;56592.94;;;-140.56;78.87
10482;BME280;5288;42.334;23.876;2022-12-07T02:25:54;56559.31;;;-140.56;78.97
10482;BME280;5288;42.334;23.876;2022-12-07T02:28:28;56543.50;;;-140.56;78.02
10482;BME280;5288;42.334;23.876;2022-12-07T02:31:02;56579.09;;;-140.56;78.27
10482;BME280;5288;42.334;23.876;2022-12-07T02:33:35;56563.28;;;-140.56;77.93
10482;BME280;5288;42.334;23.876;2022-12-07T02:36:07;56559.31;;;-140.56;77.95
10482;BME280;5288;42.334;23.876;2022-12-07T02:38:40;56569.22;;;-140.56;77.59
10482;BME280;5288;42.334;23.876;2022-12-07T02:44:01;56505.97;;;-140.56;77.58
10482;BME280;5288;42.334;23.876;2022-12-07T02:46:33;56557.34;;;-140.56;77.29
10482;BME280;5288;42.334;23.876;2022-12-07T02:49:03;56551.41;;;-140.56;76.66
10482;BME280;5288;42.334;23.876;2022-12-07T02:51:31;56547.47;;;-140.56;76.93
10482;BME280;5288;42.334;23.876;2022-12-07T02:53:58;56567.22;;;-140.56;76.19
10482;BME280;5288;42.334;23.876;2022-12-07T02:56:27;56539.56;;;-140.56;76.49
10482;BME280;5288;42.334;23.876;2022-12-07T02:59:05;56563.28;;;-140.56;76.56
10482;BME280;5288;42.334;23.876;2022-12-07T03:01:43;56551.41;;;-140.56;76.51
10482;BME280;5288;42.334;23.876;2022-12-07T03:04:24;56535.59;;;-140.56;76.71
10482;BME280;5288;42.334;23.876;2022-12-07T03:06:57;56515.84;;;-140.56;76.49
10482;BME280;5288;42.334;23.876;2022-12-07T03:09:30;56535.59;;;-140.56;76.45
10482;BME280;5288;42.334;23.876;2022-12-07T03:12:05;56565.25;;;-140.56;76.82
10482;BME280;5288;42.334;23.876;2022-12-07T03:14:40;56585.03;;;-140.56;76.70
10482;BME280;5288;42.334;23.876;2022-12-07T03:17:12;56575.13;;;-140.56;76.67
10482;BME280;5288;42.334;23.876;2022-12-07T03:19:42;56577.13;;;-140.56;76.64
10482;BME280;5288;42.334;23.876;2022-12-07T03:22:12;56557.34;;;-140.56;77.19
10482;BME280;5288;42.334;23.876;2022-12-07T03:24:43;56577.13;;;-140.56;77.07
10482;BME280;5288;42.334;23.876;2022-12-07T03:27:16;56565.25;;;-140.56;76.82
10482;BME280;5288;42.334;23.876;2022-12-07T03:29:49;56618.63;;;-140.56;77.01
10482;BME280;5288;42.334;23.876;2022-12-07T03:32:23;56537.59;;;-140.56;76.91
10482;BME280;5288;42.334;23.876;2022-12-07T03:34:57;56583.03;;;-140.56;76.74
10482;BME280;5288;42.334;23.876;2022-12-07T03:37:33;56567.22;;;-140.56;76.48
10482;BME280;5288;42.334;23.876;2022-12-07T03:40:05;56529.69;;;-140.56;76.43
10482;BME280;5288;42.334;23.876;2022-12-07T03:42:34;56573.16;;;-140.56;76.27
10482;BME280;5288;42.334;23.876;2022-12-07T03:45:02;56531.66;;;-140.56;76.42
10482;BME280;5288;42.334;23.876;2022-12-07T03:47:33;56539.56;;;-140.56;76.24
10482;BME280;5288;42.334;23.876;2022-12-07T03:50:07;56577.13;;;-140.56;76.41
10482;BME280;5288;42.334;23.876;2022-12-07T03:52:40;56571.19;;;-140.56;76.81
10482;BME280;5288;42.334;23.876;2022-12-07T03:55:12;56569.22;;;-140.56;76.98
10482;BME280;5288;42.334;23.876;2022-12-07T03:57:43;56555.38;;;-140.56;76.59
10482;BME280;5288;42.334;23.876;2022-12-07T04:00:12;56555.38;;;-140.56;76.73
10482;BME280;5288;42.334;23.876;2022-12-07T04:02:42;56585.03;;;-140.56;76.21
10482;BME280;5288;42.334;23.876;2022-12-07T04:05:10;56565.25;;;-140.56;76.01
10482;BME280;5288;42.334;23.876;2022-12-07T04:07:37;56547.47;;;-140.56;76.36
10482;BME280;5288;42.334;23.876;2022-12-07T04:10:05;56571.19;;;-140.56;76.69
10482;BME280;5288;42.334;23.876;2022-12-07T04:12:32;56551.41;;;-140.56;76.71
10482;BME280;5288;42.334;23.876;2022-12-07T04:14:59;56579.09;;;-140.56;76.49
10482;BME280;5288;42.334;23.876;2022-12-07T04:17:26;56569.22;;;-140.56;76.03
10482;BME280;5288;42.334;23.876;2022-12-07T04:19:55;56557.34;;;-140.56;76.35
10482;BME280;5288;42.334;23.876;2022-12-07T04:22:22;56555.38;;;-140.56;76.98
10482;BME280;5288;42.334;23.876;2022-12-07T04:24:49;56573.16;;;-140.56;77.18
10482;BME280;5288;42.334;23.876;2022-12-07T04:27:16;56590.94;;;-140.56;77.23
10482;BME280;5288;42.334;23.876;2022-12-07T04:29:43;56549.44;;;-140.56;76.68
10482;BME280;5288;42.334;23.876;2022-12-07T04:32:10;56561.31;;;-140.56;76.57
10482;BME280;5288;42.334;23.876;2022-12-07T04:34:37;56575.13;;;-140.56;76.93
10482;BME280;5288;42.334;23.876;2022-12-07T04:37:05;56547.47;;;-140.56;77.19
10482;BME280;5288;42.334;23.876;2022-12-07T04:39:33;56577.13;;;-140.56;77.52
10482;BME280;5288;42.334;23.876;2022-12-07T04:42:00;56543.50;;;-140.56;76.55
10482;BME280;5288;42.334;23.876;2022-12-07T04:44:28;56569.22;;;-140.56;76.58
10482;BME280;5288;42.334;23.876;2022-12-07T04:46:55;56569.22;;;-140.56;76.76
10482;BME280;5288;42.334;23.876;2022-12-07T04:49:24;56577.13;;;-140.56;77.08
10482;BME280;5288;42.334;23.876;2022-12-07T04:51:51;56551.41;;;-140.56;77.13
10482;BME280;5288;42.334;23.876;2022-12-07T04:54:19;56547.47;;;-140.56;77.37
10482;BME280;5288;42.334;23.876;2022-12-07T04:56:46;56555.38;;;-140.56;77.17
10482;BME280;5288;42.334;23.876;2022-12-07T04:59:15;56585.03;;;-140.56;76.80
10482;BME280;5288;42.334;23.876;2022-12-07T05:01:43;56565.25;;;-140.56;76.68
10482;BME280;5288;42.334;23.876;2022-12-07T05:04:10;56555.38;;;-140.56;76.54
10482;BME280;5288;42.334;23.876;2022-12-07T05:06:37;56579.09;;;-140.56;76.31
10482;BME280;5288;42.334;23.876;2022-12-07T05:09:04;56555.38;;;-140.56;76.61
10482;BME280;5288;42.334;23.876;2022-12-07T05:11:33;56553.41;;;-140.56;76.62
10482;BME280;5288;42.334;23.876;2022-12-07T05:14:11;56547.47;;;-140.56;76.31
10482;BME280;5288;42.334;23.876;2022-12-07T05:16:38;56527.72;;;-140.56;76.22
10482;BME280;5288;42.334;23.876;2022-12-07T05:19:06;56535.59;;;-140.56;76.34
10482;BME280;5288;42.334;23.876;2022-12-07T05:21:33;56549.44;;;-140.56;76.21
10482;BME280;5288;42.334;23.876;2022-12-07T05:24:00;56555.38;;;-140.56;75.96
10482;BME280;5288;42.334;23.876;2022-12-07T05:26:28;56585.03;;;-140.56;76.39
10482;BME280;5288;42.334;23.876;2022-12-07T05:28:57;56579.09;;;-140.56;75.89
10482;BME280;5288;42.334;23.876;2022-12-07T05:31:25;56565.25;;;-140.56;76.45
10482;BME280;5288;42.334;23.876;2022-12-07T05:33:52;56596.88;;;-140.56;76.60
10482;BME280;5288;42.334;23.876;2022-12-07T05:36:20;56575.13;;;-140.56;76.39
10482;BME280;5288;42.334;23.876;2022-12-07T05:38:47;56541.53;;;-140.56;76.46
10482;BME280;5288;42.334;23.876;2022-12-07T05:41:17;56553.41;;;-140.56;76.34
10482;BME280;5288;42.334;23.876;2022-12-07T05:44:04;56579.09;;;-140.56;76.58
10482;BME280;5288;42.334;23.876;2022-12-07T05:46:32;56541.53;;;-140.56;76.68
10482;BME280;5288;42.334;23.876;2022-12-07T05:48:59;56579.09;;;-140.56;76.66
10482;BME280;5288;42.334;23.876;2022-12-07T05:51:26;56596.88;;;-140.56;76.60
10482;BME280;5288;42.334;23.876;2022-12-07T05:53:53;56571.19;;;-140.56;76.17
10482;BME280;5288;42.334;23.876;2022-12-07T05:56:20;56555.38;;;-140.56;76.24
10482;BME280;5288;42.334;23.876;2022-12-07T05:58:48;56594.91;;;-140.56;76.10
10482;BME280;5288;42.334;23.876;2022-12-07T06:01:34;56543.50;;;-140.56;76.20
10482;BME280;5288;42.334;23.876;2022-12-07T06:04:01;56565.25;;;-140.56;76.06
10482;BME280;5288;42.334;23.876;2022-12-07T06:06:28;56596.88;;;-140.56;76.06
10482;BME280;5288;42.334;23.876;2022-12-07T06:08:55;56553.41;;;-140.56;76.43
10482;BME280;5288;42.334;23.876;2022-12-07T06:11:22;56559.31;;;-140.56;76.30
10482;BME280;5288;42.334;23.876;2022-12-07T06:14:06;56583.03;;;-140.56;76.65
10482;BME280;5288;42.334;23.876;2022-12-07T06:16:35;56569.22;;;-140.56;76.58
10482;BME280;5288;42.334;23.876;2022-12-07T06:19:02;56583.03;;;-140.56;76.47
10482;BME280;5288;42.334;23.876;2022-12-07T06:21:29;56596.88;;;-140.56;76.66
10482;BME280;5288;42.334;23.876;2022-12-07T06:23:56;56553.41;;;-140.56;76.98
10482;BME280;5288;42.334;23.876;2022-12-07T06:26:23;56543.50;;;-140.56;76.31
10482;BME280;5288;42.334;23.876;2022-12-07T06:28:50;56555.38;;;-140.56;75.89
10482;BME280;5288;42.334;23.876;2022-12-07T06:31:17;56569.22;;;-140.56;75.74
10482;BME280;5288;42.334;23.876;2022-12-07T06:33:45;56561.31;;;-140.56;75.62
10482;BME280;5288;42.334;23.876;2022-12-07T06:36:12;56575.13;;;-140.56;75.96
10482;BME280;5288;42.334;23.876;2022-12-07T06:38:39;56569.22;;;-140.56;75.96
10482;BME280;5288;42.334;23.876;2022-12-07T06:41:06;56583.03;;;-140.56;75.20
10482;BME280;5288;42.334;23.876;2022-12-07T06:43:33;56535.59;;;-140.56;75.09
10482;BME280;5288;42.334;23.876;2022-12-07T06:46:00;56573.16;;;-140.56;74.78
10482;BME280;5288;42.334;23.876;2022-12-07T06:48:27;56567.22;;;-140.56;74.55
10482;BME280;5288;42.334;23.876;2022-12-07T06:50:56;56543.50;;;-140.56;74.84
10482;BME280;5288;42.334;23.876;2022-12-07T06:53:23;56551.41;;;-140.56;74.75
10482;BME280;5288;42.334;23.876;2022-12-07T06:55:50;56555.38;;;-140.56;74.86
10482;BME280;5288;42.334;23.876;2022-12-07T06:58:18;56569.22;;;-140.56;74.44
10482;BME280;5288;42.334;23.876;2022-12-07T07:00:45;56559.31;;;-140.56;74.70
10482;BME280;5288;42.334;23.876;2022-12-07T07:03:12;56596.88;;;-140.56;74.36
10482;BME280;5288;42.334;23.876;2022-12-07T07:05:39;56561.31;;;-140.56;74.45
10482;BME280;5288;42.334;23.876;2022-12-07T07:08:08;56551.41;;;-140.56;74.97
10482;BME280;5288;42.334;23.876;2022-12-07T07:10:35;56537.59;;;-140.56;74.81
10482;BME280;5288;42.334;23.876;2022-12-07T07:13:03;56565.25;;;-140.56;74.81
10482;BME280;5288;42.334;23.876;2022-12-07T07:15:32;56561.31;;;-140.56;74.93
10482;BME280;5288;42.334;23.876;2022-12-07T07:17:59;56549.44;;;-140.56;74.90
10482;BME280;5288;42.334;23.876;2022-12-07T07:20:26;56569.22;;;-140.56;74.84
10482;BME280;5288;42.334;23.876;2022-12-07T07:22:54;56579.09;;;-140.56;75.04
10482;BME280;5288;42.334;23.876;2022-12-07T07:25:23;56590.94;;;-140.56;74.99
10482;BME280;5288;42.334;23.876;2022-12-07T07:27:50;56606.75;;;-140.56;75.06
10482;BME280;5288;42.334;23.876;2022-12-07T07:30:17;56545.50;;;-140.56;74.77
10482;BME280;5288;42.334;23.876;2022-12-07T07:32:44;56571.19;;;-140.56;75.30
10482;BME280;5288;42.334;23.876;2022-12-07T07:35:11;56567.22;;;-140.56;75.48
10482;BME280;5288;42.334;23.876;2022-12-07T07:37:39;56588.97;;;-140.56;75.85
10482;BME280;5288;42.334;23.876;2022-12-07T07:40:07;56598.84;;;-140.56;76.11
10482;BME280;5288;42.334;23.876;2022-12-07T07:42:36;56573.16;;;-140.56;75.80
10482;BME280;5288;42.334;23.876;2022-12-07T07:45:03;56567.22;;;-140.56;75.90
10482;BME280;5288;42.334;23.876;2022-12-07T07:47:30;56587.00;;;-140.56;75.69
10482;BME280;5288;42.334;23.876;2022-12-07T07:49:58;56598.84;;;-140.56;75.82
10482;BME280;5288;42.334;23.876;2022-12-07T07:52:25;56539.56;;;-140.56;75.40
10482;BME280;5288;42.334;23.876;2022-12-07T07:54:52;56573.16;;;-140.56;75.10
10482;BME280;5288;42.334;23.876;2022-12-07T07:57:19;56579.09;;;-140.56;75.08
10482;BME280;5288;42.334;23.876;2022-12-07T07:59:47;56559.31;;;-140.56;75.08
10482;BME280;5288;42.334;23.876;2022-12-07T08:02:16;56547.47;;;-140.56;74.60
10482;BME280;5288;42.334;23.876;2022-12-07T08:04:44;56565.25;;;-140.56;75.18
10482;BME280;5288;42.334;23.876;2022-12-07T08:07:12;56545.50;;;-140.56;74.69
10482;BME280;5288;42.334;23.876;2022-12-07T08:09:40;56575.13;;;-140.56;74.54
10482;BME280;5288;42.334;23.876;2022-12-07T08:12:07;56537.59;;;-140.56;74.53
10482;BME280;5288;42.334;23.876;2022-12-07T08:14:34;56549.44;;;-140.56;74.72
10482;BME280;5288;42.334;23.876;2022-12-07T08:17:03;56583.03;;;-140.56;74.71
10482;BME280;5288;42.334;23.876;2022-12-07T08:19:30;56561.31;;;-140.56;74.88
10482;BME280;5288;42.334;23.876;2022-12-07T08:21:57;56583.03;;;-140.56;74.25
10482;BME280;5288;42.334;23.876;2022-12-07T08:24:24;56565.25;;;-140.56;74.12
10482;BME280;5288;42.334;23.876;2022-12-07T08:26:51;56547.47;;;-140.56;73.85
10482;BME280;5288;42.334;23.876;2022-12-07T08:29:19;56573.16;;;-140.56;73.38
10482;BME280;5288;42.334;23.876;2022-12-07T08:31:46;56585.03;;;-140.56;73.27
10482;BME280;5288;42.334;23.876;2022-12-07T08:34:15;56543.50;;;-140.56;73.85
10482;BME280;5288;42.334;23.876;2022-12-07T08:36:42;56567.22;;;-140.56;74.50
10482;BME280;5288;42.334;23.876;2022-12-07T08:39:09;56511.91;;;-140.56;74.06
10482;BME280;5288;42.334;23.876;2022-12-07T08:41:36;56585.03;;;-140.56;73.19
10482;BME280;5288;42.334;23.876;2022-12-07T08:44:04;56541.53;;;-140.56;73.92
10482;BME280;5288;42.334;23.876;2022-12-07T08:46:33;56557.34;;;-140.56;73.90
10482;BME280;5288;42.334;23.876;2022-12-07T08:49:05;56539.56;;;-140.56;77.20
10482;BME280;5288;42.334;23.876;2022-12-07T08:51:36;56515.84;;;-140.56;77.08
10482;BME280;5288;42.334;23.876;2022-12-07T08:54:05;56492.13;;;-140.56;75.83
10482;BME280;5288;42.334;23.876;2022-12-07T08:56:34;56482.25;;;-140.56;73.67
10482;BME280;5288;42.334;23.876;2022-12-07T08:59:02;56450.63;;;-140.56;68.18
10482;BME280;5288;42.334;23.876;2022-12-07T09:01:32;56460.50;;;-140.56;67.65
10482;BME280;5288;42.334;23.876;2022-12-07T09:03:59;56476.31;;;-140.56;65.05
10482;BME280;5288;42.334;23.876;2022-12-07T09:06:26;56438.78;;;-140.56;64.23
10482;BME280;5288;42.334;23.876;2022-12-07T09:08:58;56502.00;;;-140.56;63.30
10482;BME280;5288;42.334;23.876;2022-12-07T09:11:27;56448.66;;;-140.56;64.95
10482;BME280;5288;42.334;23.876;2022-12-07T09:13:54;56488.19;;;-140.56;64.64
10482;BME280;5288;42.334;23.876;2022-12-07T09:16:21;56460.50;;;-140.56;65.15
10482;BME280;5288;42.334;23.876;2022-12-07T09:18:48;56509.91;;;-140.56;65.78
10482;BME280;5288;42.334;23.876;2022-12-07T09:21:15;56498.06;;;-140.56;64.94
10482;BME280;5288;42.334;23.876;2022-12-07T09:23:42;56424.94;;;-140.56;64.85
10482;BME280;5288;42.334;23.876;2022-12-07T09:26:11;56446.69;;;-140.56;61.48
10482;BME280;5288;42.334;23.876;2022-12-07T09:28:38;56444.69;;;-140.56;62.42
10482;BME280;5288;42.334;23.876;2022-12-07T09:31:05;56460.50;;;-140.56;62.25
10482;BME280;5288;42.334;23.876;2022-12-07T09:33:33;56424.94;;;-140.56;60.99
10482;BME280;5288;42.334;23.876;2022-12-07T09:36:00;56428.88;;;-140.56;60.14
10482;BME280;5288;42.334;23.876;2022-12-07T09:38:28;56428.88;;;-140.56;60.73
10482;BME280;5288;42.334;23.876;2022-12-07T09:40:55;56391.34;;;-140.56;60.84
10482;BME280;5288;42.334;23.876;2022-12-07T09:43:25;56426.91;;;-140.56;60.85
10482;BME280;5288;42.334;23.876;2022-12-07T09:45:54;56422.97;;;-140.56;60.11
10482;BME280;5288;42.334;23.876;2022-12-07T09:48:30;56419.00;;;-140.56;59.43
10482;BME280;5288;42.334;23.876;2022-12-07T09:50:59;56438.78;;;-140.56;59.14
10482;BME280;5288;42.334;23.876;2022-12-07T09:53:29;56401.22;;;-140.56;57.30
10482;BME280;5288;42.334;23.876;2022-12-07T09:55:57;56373.56;;;-140.56;56.40
10482;BME280;5288;42.334;23.876;2022-12-07T09:58:27;56413.06;;;-140.56;59.08
10482;BME280;5288;42.334;23.876;2022-12-07T10:00:56;56387.38;;;-140.56;58.33
10482;BME280;5288;42.334;23.876;2022-12-07T10:03:25;56409.13;;;-140.56;nan
10482;BME280;5288;42.334;23.876;2022-12-07T10:05:53;56403.19;;;-140.56;55.92
10482;BME280;5288;42.334;23.876;2022-12-07T10:08:20;56371.56;;;-140.56;57.67
10482;BME280;5288;42.334;23.876;2022-12-07T10:10:50;56401.22;;;-140.56;56.99
10482;BME280;5288;42.334;23.876;2022-12-07T10:13:20;56438.78;;;-140.56;60.24
10482;BME280;5288;42.334;23.876;2022-12-07T10:15:51;56422.97;;;-140.56;58.76
10482;BME280;5288;42.334;23.876;2022-12-07T10:18:30;56377.50;;;-140.56;56.45
10482;BME280;5288;42.334;23.876;2022-12-07T10:21:03;56391.34;;;-140.56;55.11
10482;BME280;5288;42.334;23.876;2022-12-07T10:23:31;56422.97;;;-140.56;55.21
10482;BME280;5288;42.334;23.876;2022-12-07T10:25:58;56444.69;;;-140.56;56.53
10482;BME280;5288;42.334;23.876;2022-12-07T10:28:33;56426.91;;;-140.56;58.81
10482;BME280;5288;42.334;23.876;2022-12-07T10:31:15;56456.56;;;-140.56;59.85
10482;BME280;5288;42.334;23.876;2022-12-07T10:33:49;56454.59;;;-140.56;60.59
10482;BME280;5288;42.334;23.876;2022-12-07T10:36:20;56476.31;;;-140.56;61.19
10482;BME280;5288;42.334;23.876;2022-12-07T10:38:49;56505.97;;;-140.56;62.68
10482;BME280;5288;42.334;23.876;2022-12-07T10:41:17;56482.25;;;-140.56;62.90
10482;BME280;5288;42.334;23.876;2022-12-07T10:43:53;56488.19;;;-140.56;62.79
10482;BME280;5288;42.334;23.876;2022-12-07T10:50:10;56490.16;;;-140.56;63.36
10482;BME280;5288;42.334;23.876;2022-12-07T10:55:52;56456.56;;;-140.56;63.44
10482;BME280;5288;42.334;23.876;2022-12-07T10:58:40;56484.22;;;-140.56;62.17
10482;BME280;5288;42.334;23.876;2022-12-07T11:01:19;56448.66;;;-140.56;61.26
10482;BME280;5288;42.334;23.876;2022-12-07T11:04:00;56432.84;;;-140.56;60.30
10482;BME280;5288;42.334;23.876;2022-12-07T11:06:36;56424.94;;;-140.56;59.14
10482;BME280;5288;42.334;23.876;2022-12-07T11:09:32;56488.19;;;-140.56;59.42
10482;BME280;5288;42.334;23.876;2022-12-07T11:12:07;56409.13;;;-140.56;58.46
10482;BME280;5288;42.334;23.876;2022-12-07T11:14:40;56409.13;;;-140.56;58.66
10482;BME280;5288;42.334;23.876;2022-12-07T11:17:15;56422.97;;;-140.56;57.78
10482;BME280;5288;42.334;23.876;2022-12-07T11:19:52;56458.53;;;-140.56;57.83
10482;BME280;5288;42.334;23.876;2022-12-07T11:22:31;56432.84;;;-140.56;58.93
10482;BME280;5288;42.334;23.876;2022-12-07T11:25:14;56440.75;;;-140.56;58.51
10482;BME280;5288;42.334;23.876;2022-12-07T11:27:47;56420.97;;;-140.56;59.49
10482;BME280;5288;42.334;23.876;2022-12-07T11:30:20;56411.09;;;-140.56;59.20
10482;BME280;5288;42.334;23.876;2022-12-07T11:33:04;56444.69;;;-140.56;58.88
10482;BME280;5288;42.334;23.876;2022-12-07T11:35:48;56442.72;;;-140.56;58.70
10482;BME280;5288;42.334;23.876;2022-12-07T11:38:22;56452.59;;;-140.56;59.14
10482;BME280;5288;42.334;23.876;2022-12-07T11:40:51;56436.78;;;-140.56;59.45
10482;BME280;5288;42.334;23.876;2022-12-07T11:43:24;56436.78;;;-140.56;59.37
10482;BME280;5288;42.334;23.876;2022-12-07T11:45:57;56472.38;;;-140.56;59.90
10482;BME280;5288;42.334;23.876;2022-12-07T11:48:32;56436.78;;;-140.56;60.28
10482;BME280;5288;42.334;23.876;2022-12-07T11:51:02;56442.72;;;-140.56;60.66
10482;BME280;5288;42.334;23.876;2022-12-07T11:53:34;56476.31;;;-140.56;60.19
10482;BME280;5288;42.334;23.876;2022-12-07T11:56:08;56432.84;;;-140.56;60.27
10482;BME280;5288;42.334;23.876;2022-12-07T11:58:51;56434.81;;;-140.56;60.56
10482;BME280;5288;42.334;23.876;2022-12-07T12:01:35;56464.47;;;-140.56;60.63
10482;BME280;5288;42.334;23.876;2022-12-07T12:04:06;56472.38;;;-140.56;60.70
10482;BME280;5288;42.334;23.876;2022-12-07T12:06:42;56474.34;;;-140.56;61.39
10482;BME280;5288;42.334;23.876;2022-12-07T12:09:13;56482.25;;;-140.56;61.97
10482;BME280;5288;42.334;23.876;2022-12-07T12:11:54;56468.41;;;-140.56;62.26
10482;BME280;5288;42.334;23.876;2022-12-07T12:14:35;56504.00;;;-140.56;61.98
10482;BME280;5288;42.334;23.876;2022-12-07T12:20:20;56478.28;;;-140.56;63.21
10482;BME280;5288;42.334;23.876;2022-12-07T12:22:52;56448.66;;;-140.56;63.04
10482;BME280;5288;42.334;23.876;2022-12-07T12:25:26;56452.59;;;-140.56;61.11
10482;BME280;5288;42.334;23.876;2022-12-07T12:27:56;56450.63;;;-140.56;59.84
10482;BME280;5288;42.334;23.876;2022-12-07T12:30:30;56476.31;;;-140.56;59.71
10482;BME280;5288;42.334;23.876;2022-12-07T12:33:03;56405.16;;;-140.56;59.75
10482;BME280;5288;42.334;23.876;2022-12-07T12:35:32;56452.59;;;-140.56;59.98
10482;BME280;5288;42.334;23.876;2022-12-07T12:38:26;56430.88;;;-140.56;60.41
10482;BME280;5288;42.334;23.876;2022-12-07T12:40:55;56442.72;;;-140.56;59.45
10482;BME280;5288;42.334;23.876;2022-12-07T12:43:50;56482.25;;;-140.56;58.57
10482;BME280;5288;42.334;23.876;2022-12-07T12:49:43;56422.97;;;-140.56;58.61
10482;BME280;5288;42.334;23.876;2022-12-07T12:55:17;56436.78;;;-140.56;58.69
10482;BME280;5288;42.334;23.876;2022-12-07T13:03:55;56440.75;;;-140.56;59.27
10482;BME280;5288;42.334;23.876;2022-12-07T13:06:34;56444.69;;;-140.56;59.16
10482;BME280;5288;42.334;23.876;2022-12-07T13:09:03;56444.69;;;-140.56;59.45
10482;BME280;5288;42.334;23.876;2022-12-07T13:11:33;56436.78;;;-140.56;60.16
10482;BME280;5288;42.334;23.876;2022-12-07T13:14:38;56438.78;;;-140.56;60.31
10482;BME280;5288;42.334;23.876;2022-12-07T13:17:08;56417.03;;;-140.56;60.64
10482;BME280;5288;42.334;23.876;2022-12-07T13:19:57;56440.75;;;-140.56;60.50
10482;BME280;5288;42.334;23.876;2022-12-07T13:22:43;56436.78;;;-140.56;61.04
10482;BME280;5288;42.334;23.876;2022-12-07T13:25:12;56448.66;;;-140.56;61.26
10482;BME280;5288;42.334;23.876;2022-12-07T13:27:51;56442.72;;;-140.56;61.81